Time,TemperatureF,DewpointF,PressureIn,WindDirection,WindDirectionDegrees,WindSpeedMPH,WindSpeedGustMPH,Humidity,HourlyPrecipIn,Conditions,Clouds,dailyrainin,SoftwareType,DateUTC
2013-03-18 00:00:00,18.3,13.7,30.36,WNW,292,0.0,0.0,82,0.00,CLR,OVC,0.00,WeatherDisplay:10.37,2013-03-18 04:00:00,
2013-03-18 00:05:00,18.3,14.3,30.36,WNW,292,0.0,0.0,84,0.00,CLR,OVC,0.00,WeatherDisplay:10.37,2013-03-18 04:05:00,
2013-03-18 00:10:00,18.3,14.5,30.36,WNW,292,0.0,0.0,85,0.00,CLR,OVC,0.00,WeatherDisplay:10.37,2013-03-18 04:10:00,
2013-03-18 00:15:00,18.3,14.5,30.36,WNW,292,0.0,0.0,85,0.00,CLR,OVC,0.00,WeatherDisplay:10.37,2013-03-18 04:15:00,
2013-03-18 00:20:00,18.3,14.5,30.36,WNW,292,0.0,0.0,85,0.00,CLR,OVC,0.00,WeatherDisplay:10.37,2013-03-18 04:20:00,
2013-03-18 00:25:00,18.3,14.5,30.37,WNW,292,0.0,0.0,85,0.00,CLR,OVC,0.00,WeatherDisplay:10.37,2013-03-18 04:25:00,
2013-03-18 00:30:00,18.7,14.7,30.37,WNW,292,0.0,0.0,84,0.00,CLR,OVC,0.00,WeatherDisplay:10.37,2013-03-18 04:30:00,
2013-03-18 00:35:00,18.3,13.7,30.37,WNW,292,0.0,0.0,82,0.00,CLR,OVC,0.00,WeatherDisplay:10.37,2013-03-18 04:35:00,
2013-03-18 00:41:00,18.1,14.1,30.37,WNW,292,1.3,1.3,84,0.00,CLR,OVC,0.00,WeatherDisplay:10.37,2013-03-18 04:41:00,
2013-03-18 00:46:00,18.1,14.1,30.37,WNW,292,1.1,1.1,84,0.00,CLR,OVC,0.00,WeatherDisplay:10.37,2013-03-18 04:46:00,
2013-03-18 00:51:00,18.1,14.1,30.36,WNW,292,0.0,0.0,84,0.00,CLR,OVC,0.00,WeatherDisplay:10.37,2013-03-18 04:51:00,
2013-03-18 00:56:00,18.5,13.9,30.36,WNW,292,0.0,0.0,82,0.00,CLR,OVC,0.00,WeatherDisplay:10.37,2013-03-18 04:56:00,
2013-03-18 01:01:00,18.7,14.1,30.36,WNW,292,0.0,0.0,82,0.00,CLR,OVC,0.00,WeatherDisplay:10.37,2013-03-18 05:01:00,
2013-03-18 01:06:00,18.7,13.8,30.36,WNW,292,0.0,0.0,81,0.00,CLR,OVC,0.00,WeatherDisplay:10.37,2013-03-18 05:06:00,
2013-03-18 01:11:00,18.5,13.6,30.36,WNW,292,0.0,0.0,81,0.00,CLR,OVC,0.00,WeatherDisplay:10.37,2013-03-18 05:11:00,
2013-03-18 01:16:00,18.5,13.6,30.36,WNW,292,0.0,0.0,81,0.00,CLR,OVC,0.00,WeatherDisplay:10.37,2013-03-18 05:16:00,
2013-03-18 01:21:00,18.3,13.2,30.36,WNW,292,0.0,0.0,80,0.00,CLR,OVC,0.00,WeatherDisplay:10.37,2013-03-18 05:21:00,
2013-03-18 01:26:00,18.3,13.4,30.37,WNW,292,0.0,0.0,81,0.00,CLR,OVC,0.00,WeatherDisplay:10.37,2013-03-18 05:26:00,
2013-03-18 01:31:00,18.3,13.4,30.37,WNW,292,0.0,0.0,81,0.00,CLR,OVC,0.00,WeatherDisplay:10.37,2013-03-18 05:31:00,
2013-03-18 01:36:00,18.0,13.2,30.38,WNW,292,0.5,1.1,81,0.00,CLR,OVC,0.00,WeatherDisplay:10.37,2013-03-18 05:36:00,
2013-03-18 01:41:00,18.0,13.2,30.38,WNW,292,0.0,1.1,81,0.00,CLR,OVC,0.00,WeatherDisplay:10.37,2013-03-18 05:41:00,
2013-03-18 01:46:00,18.0,13.2,30.38,WNW,292,0.0,0.0,81,0.00,CLR,OVC,0.00,WeatherDisplay:10.37,2013-03-18 05:46:00,
2013-03-18 01:51:00,17.8,12.7,30.38,WNW,292,0.0,0.0,80,0.00,CLR,OVC,0.00,WeatherDisplay:10.37,2013-03-18 05:51:00,
2013-03-18 01:56:00,17.8,13.0,30.38,WNW,292,0.0,0.0,81,0.00,CLR,OVC,0.00,WeatherDisplay:10.37,2013-03-18 05:56:00,
2013-03-18 02:01:00,17.8,12.7,30.37,WNW,292,1.4,1.4,80,0.00,CLR,OVC,0.00,WeatherDisplay:10.37,2013-03-18 06:01:00,
2013-03-18 02:06:00,17.8,12.7,30.37,WNW,292,0.0,1.1,80,0.00,CLR,OVC,0.00,WeatherDisplay:10.37,2013-03-18 06:06:00,
2013-03-18 02:11:00,17.8,13.0,30.38,WNW,292,1.1,1.1,81,0.00,CLR,OVC,0.00,WeatherDisplay:10.37,2013-03-18 06:11:00,
2013-03-18 02:16:00,17.8,13.0,30.38,WNW,292,0.8,1.1,81,0.00,CLR,OVC,0.00,WeatherDisplay:10.37,2013-03-18 06:16:00,
2013-03-18 02:21:00,17.8,13.0,30.38,WNW,292,0.9,1.1,81,0.00,CLR,OVC,0.00,WeatherDisplay:10.37,2013-03-18 06:21:00,
2013-03-18 02:26:00,17.8,13.0,30.38,WNW,292,0.3,0.0,81,0.00,CLR,OVC,0.00,WeatherDisplay:10.37,2013-03-18 06:26:00,
2013-03-18 02:31:00,17.4,12.6,30.38,WNW,292,0.5,2.3,81,0.00,CLR,OVC,0.00,WeatherDisplay:10.37,2013-03-18 06:31:00,
2013-03-18 02:37:00,17.4,12.6,30.38,WNW,292,0.0,0.0,81,0.00,CLR,OVC,0.00,WeatherDisplay:10.37,2013-03-18 06:37:00,
2013-03-18 02:42:00,17.4,12.8,30.38,WNW,292,0.0,0.0,82,0.00,CLR,OVC,0.00,WeatherDisplay:10.37,2013-03-18 06:42:00,
2013-03-18 02:47:00,17.4,12.8,30.38,WNW,292,1.5,1.7,82,0.00,CLR,OVC,0.00,WeatherDisplay:10.37,2013-03-18 06:47:00,
2013-03-18 02:52:00,17.4,12.8,30.38,WNW,292,1.6,1.6,82,0.00,CLR,OVC,0.00,WeatherDisplay:10.37,2013-03-18 06:52:00,
2013-03-18 02:57:00,17.2,12.4,30.38,WNW,292,0.2,1.1,81,0.00,CLR,OVC,0.00,WeatherDisplay:10.37,2013-03-18 06:57:00,
2013-03-18 03:02:00,17.2,12.4,30.38,WNW,292,1.5,1.7,81,0.00,CLR,OVC,0.00,WeatherDisplay:10.37,2013-03-18 07:02:00,
2013-03-18 03:07:00,17.1,12.6,30.38,WNW,292,0.4,2.2,82,0.00,CLR,OVC,0.00,WeatherDisplay:10.37,2013-03-18 07:07:00,
2013-03-18 03:12:00,17.1,12.3,30.37,WNW,292,1.6,1.7,81,0.00,CLR,OVC,0.00,WeatherDisplay:10.37,2013-03-18 07:12:00,
2013-03-18 03:17:00,16.9,12.4,30.37,WNW,292,1.2,2.3,82,0.00,CLR,OVC,0.00,WeatherDisplay:10.37,2013-03-18 07:17:00,
2013-03-18 03:22:00,17.1,12.3,30.37,WNW,292,1.4,1.7,81,0.00,CLR,OVC,0.00,WeatherDisplay:10.37,2013-03-18 07:22:00,
2013-03-18 03:27:00,17.2,12.4,30.37,WNW,292,1.4,2.3,81,0.00,CLR,OVC,0.00,WeatherDisplay:10.37,2013-03-18 07:27:00,
2013-03-18 03:32:00,16.9,12.1,30.37,WNW,292,1.9,2.2,81,0.00,CLR,OVC,0.00,WeatherDisplay:10.37,2013-03-18 07:32:00,
2013-03-18 03:38:00,16.7,11.9,30.36,WNW,292,1.4,2.3,81,0.00,CLR,OVC,0.00,WeatherDisplay:10.37,2013-03-18 07:38:00,
2013-03-18 03:43:00,16.7,11.9,30.36,WNW,292,1.3,1.7,81,0.00,CLR,OVC,0.00,WeatherDisplay:10.37,2013-03-18 07:43:00,
2013-03-18 03:48:00,16.5,12.0,30.36,WNW,292,1.9,2.3,82,0.00,CLR,OVC,0.00,WeatherDisplay:10.37,2013-03-18 07:48:00,
2013-03-18 03:53:00,16.5,12.0,30.36,WNW,292,1.6,1.6,82,0.00,CLR,OVC,0.00,WeatherDisplay:10.37,2013-03-18 07:53:00,
2013-03-18 03:58:00,16.3,11.8,30.36,WNW,292,1.4,2.3,82,0.00,CLR,OVC,0.00,WeatherDisplay:10.37,2013-03-18 07:58:00,
2013-03-18 04:03:00,16.3,11.8,30.35,WNW,292,1.5,1.5,82,0.00,CLR,OVC,0.00,WeatherDisplay:10.37,2013-03-18 08:03:00,
2013-03-18 04:08:00,16.2,11.7,30.35,WNW,292,1.5,1.5,82,0.00,CLR,OVC,0.00,WeatherDisplay:10.37,2013-03-18 08:08:00,
2013-03-18 04:13:00,16.3,12.0,30.35,WNW,292,0.0,0.0,83,0.00,CLR,OVC,0.00,WeatherDisplay:10.37,2013-03-18 08:13:00,
2013-03-18 04:18:00,16.5,12.2,30.35,WNW,292,0.0,0.0,83,0.00,CLR,OVC,0.00,WeatherDisplay:10.37,2013-03-18 08:18:00,
2013-03-18 04:23:00,16.2,11.7,30.35,WNW,292,1.8,1.8,82,0.00,CLR,OVC,0.00,WeatherDisplay:10.37,2013-03-18 08:23:00,
2013-03-18 04:28:00,16.0,11.5,30.35,WNW,292,2.5,2.5,82,0.00,CLR,OVC,0.00,WeatherDisplay:10.37,2013-03-18 08:28:00,
2013-03-18 04:33:00,16.0,11.5,30.35,WNW,292,0.0,0.0,82,0.00,CLR,OVC,0.00,WeatherDisplay:10.37,2013-03-18 08:33:00,
2013-03-18 04:38:00,16.0,11.5,30.35,WNW,292,0.0,0.0,82,0.00,CLR,OVC,0.00,WeatherDisplay:10.37,2013-03-18 08:38:00,
2013-03-18 04:43:00,16.0,11.5,30.35,WNW,292,0.0,0.0,82,0.00,CLR,OVC,0.00,WeatherDisplay:10.37,2013-03-18 08:43:00,
2013-03-18 04:48:00,16.0,11.2,30.35,WNW,292,0.0,0.0,81,0.00,CLR,OVC,0.00,WeatherDisplay:10.37,2013-03-18 08:48:00,
2013-03-18 04:53:00,16.2,11.7,30.35,WNW,292,0.0,0.0,82,0.00,CLR,OVC,0.00,WeatherDisplay:10.37,2013-03-18 08:53:00,
2013-03-18 04:58:00,16.0,10.9,30.35,WNW,292,0.0,0.0,80,0.00,CLR,OVC,0.00,WeatherDisplay:10.37,2013-03-18 08:58:00,
2013-03-18 05:03:00,15.8,11.0,30.35,WNW,292,0.0,0.0,81,0.00,CLR,OVC,0.00,WeatherDisplay:10.37,2013-03-18 09:03:00,
2013-03-18 05:08:00,15.8,11.3,30.35,WNW,292,0.0,0.0,82,0.00,CLR,OVC,0.00,WeatherDisplay:10.37,2013-03-18 09:08:00,
2013-03-18 05:13:00,16.0,11.5,30.36,WNW,292,0.0,0.0,82,0.00,CLR,OVC,0.00,WeatherDisplay:10.37,2013-03-18 09:13:00,
2013-03-18 05:18:00,15.6,11.1,30.36,WNW,292,0.0,0.0,82,0.00,CLR,OVC,0.00,WeatherDisplay:10.37,2013-03-18 09:18:00,
2013-03-18 05:23:00,15.4,11.2,30.36,WNW,292,0.0,0.0,83,0.00,CLR,OVC,0.00,WeatherDisplay:10.37,2013-03-18 09:23:00,
2013-03-18 05:28:00,15.3,11.3,30.36,WNW,292,0.0,0.0,84,0.00,CLR,OVC,0.00,WeatherDisplay:10.37,2013-03-18 09:28:00,
2013-03-18 05:33:00,15.1,11.1,30.36,WNW,292,0.0,0.0,84,0.00,CLR,OVC,0.00,WeatherDisplay:10.37,2013-03-18 09:33:00,
2013-03-18 05:38:00,15.3,11.6,30.36,WNW,292,0.0,0.0,85,0.00,CLR,OVC,0.00,WeatherDisplay:10.37,2013-03-18 09:38:00,
2013-03-18 05:43:00,15.1,11.9,30.36,WNW,292,0.0,0.0,87,0.00,CLR,OVC,0.00,WeatherDisplay:10.37,2013-03-18 09:43:00,
2013-03-18 05:48:00,15.1,12.2,30.37,WNW,292,0.0,0.0,88,0.00,CLR,OVC,0.00,WeatherDisplay:10.37,2013-03-18 09:48:00,
2013-03-18 05:53:00,15.1,12.4,30.37,WNW,292,0.0,0.0,89,0.00,CLR,OVC,0.00,WeatherDisplay:10.37,2013-03-18 09:53:00,
2013-03-18 05:58:00,15.1,12.4,30.37,WNW,292,0.0,0.0,89,0.00,CLR,OVC,0.00,WeatherDisplay:10.37,2013-03-18 09:58:00,
2013-03-18 06:03:00,14.9,12.5,30.37,WNW,292,0.0,0.0,90,0.00,CLR,OVC,0.00,WeatherDisplay:10.37,2013-03-18 10:03:00,
2013-03-18 06:08:00,14.9,12.5,30.37,WNW,292,0.0,0.0,90,0.00,CLR,OVC,0.00,WeatherDisplay:10.37,2013-03-18 10:08:00,
2013-03-18 06:13:00,14.9,12.5,30.37,WNW,292,0.0,0.0,90,0.00,CLR,OVC,0.00,WeatherDisplay:10.37,2013-03-18 10:13:00,
2013-03-18 06:18:00,15.1,12.7,30.37,WNW,292,0.0,0.0,90,0.00,CLR,OVC,0.00,WeatherDisplay:10.37,2013-03-18 10:18:00,
2013-03-18 06:23:00,15.1,12.7,30.38,WNW,292,0.0,0.0,90,0.00,CLR,OVC,0.00,WeatherDisplay:10.37,2013-03-18 10:23:00,
2013-03-18 06:28:00,14.9,12.2,30.38,WNW,292,0.8,1.1,89,0.00,CLR,OVC,0.00,WeatherDisplay:10.37,2013-03-18 10:28:00,
2013-03-18 06:33:00,14.9,12.5,30.38,WNW,292,0.7,1.1,90,0.00,CLR,OVC,0.00,WeatherDisplay:10.37,2013-03-18 10:33:00,
2013-03-18 06:38:00,14.9,12.5,30.38,WNW,292,1.5,1.7,90,0.00,CLR,OVC,0.00,WeatherDisplay:10.37,2013-03-18 10:38:00,
2013-03-18 06:43:00,14.9,12.5,30.38,WNW,292,1.7,1.7,90,0.00,CLR,OVC,0.00,WeatherDisplay:10.37,2013-03-18 10:43:00,
2013-03-18 06:48:00,14.9,12.5,30.38,WNW,292,1.6,1.7,90,0.00,CLR,OVC,0.00,WeatherDisplay:10.37,2013-03-18 10:48:00,
2013-03-18 06:53:00,14.9,12.5,30.38,WNW,292,1.6,1.6,90,0.00,CLR,OVC,0.00,WeatherDisplay:10.37,2013-03-18 10:53:00,
2013-03-18 06:58:00,14.9,12.5,30.38,WNW,292,1.9,2.3,90,0.00,CLR,OVC,0.00,WeatherDisplay:10.37,2013-03-18 10:58:00,
2013-03-18 07:03:00,14.9,12.5,30.39,WNW,292,0.0,0.0,90,0.00,CLR,OVC,0.00,WeatherDisplay:10.37,2013-03-18 11:03:00,
2013-03-18 07:08:00,14.9,12.5,30.39,WNW,292,2.0,2.3,90,0.00,CLR,OVC,0.00,WeatherDisplay:10.37,2013-03-18 11:08:00,
2013-03-18 07:13:00,14.9,12.5,30.39,WNW,292,2.8,3.5,90,0.00,CLR,OVC,0.00,WeatherDisplay:10.37,2013-03-18 11:13:00,
2013-03-18 07:18:00,14.9,12.5,30.39,WNW,292,2.5,3.5,90,0.00,CLR,OVC,0.00,WeatherDisplay:10.37,2013-03-18 11:18:00,
2013-03-18 07:23:00,15.3,12.6,30.39,WNW,292,2.2,2.3,89,0.00,CLR,OVC,0.00,WeatherDisplay:10.37,2013-03-18 11:23:00,
2013-03-18 07:28:00,15.1,12.4,30.39,WNW,292,1.7,2.3,89,0.00,CLR,OVC,0.00,WeatherDisplay:10.37,2013-03-18 11:28:00,
2013-03-18 07:33:00,15.3,12.6,30.39,WNW,292,0.0,0.0,89,0.00,CLR,OVC,0.00,WeatherDisplay:10.37,2013-03-18 11:33:00,
2013-03-18 07:38:00,15.4,12.7,30.39,WNW,292,1.0,2.7,89,0.00,CLR,OVC,0.00,WeatherDisplay:10.37,2013-03-18 11:38:00,
2013-03-18 07:43:00,15.8,13.1,30.39,WNW,292,2.3,2.3,89,0.00,CLR,OVC,0.00,WeatherDisplay:10.37,2013-03-18 11:43:00,
2013-03-18 07:48:00,16.0,13.1,30.39,WNW,292,2.2,2.3,88,0.00,CLR,OVC,0.00,WeatherDisplay:10.37,2013-03-18 11:48:00,
2013-03-18 07:53:00,16.2,13.3,30.39,WNW,292,2.5,2.5,88,0.00,CLR,OVC,0.00,WeatherDisplay:10.37,2013-03-18 11:53:00,
2013-03-18 07:58:00,16.5,13.3,30.39,WNW,292,2.2,3.5,87,0.00,CLR,OVC,0.00,WeatherDisplay:10.37,2013-03-18 11:58:00,
2013-03-18 08:03:00,16.7,13.5,30.39,WNW,292,2.2,2.3,87,0.00,CLR,OVC,0.00,WeatherDisplay:10.37,2013-03-18 12:03:00,
2013-03-18 08:08:00,17.1,13.6,30.39,WNW,292,2.2,2.3,86,0.00,CLR,OVC,0.00,WeatherDisplay:10.37,2013-03-18 12:08:00,
2013-03-18 08:13:00,17.2,13.5,30.39,WNW,292,1.4,2.3,85,0.00,CLR,OVC,0.00,WeatherDisplay:10.37,2013-03-18 12:13:00,
2013-03-18 08:18:00,17.6,13.6,30.39,WNW,292,1.5,2.3,84,0.00,CLR,OVC,0.00,WeatherDisplay:10.37,2013-03-18 12:18:00,
2013-03-18 08:23:00,18.1,13.8,30.38,WNW,292,2.1,2.3,83,0.00,CLR,OVC,0.00,WeatherDisplay:10.37,2013-03-18 12:23:00,
2013-03-18 08:28:00,18.5,14.2,30.38,WNW,292,0.6,2.2,83,0.00,CLR,OVC,0.00,WeatherDisplay:10.37,2013-03-18 12:28:00,
2013-03-18 08:33:00,18.7,14.1,30.38,WNW,292,2.3,2.7,82,0.00,CLR,OVC,0.00,WeatherDisplay:10.37,2013-03-18 12:33:00,
2013-03-18 08:38:00,19.2,14.3,30.37,WNW,292,2.7,3.7,81,0.00,CLR,OVC,0.00,WeatherDisplay:10.37,2013-03-18 12:38:00,
2013-03-18 08:43:00,19.6,13.9,30.37,WNW,292,1.9,2.3,78,0.00,CLR,OVC,0.00,WeatherDisplay:10.37,2013-03-18 12:43:00,
2013-03-18 08:48:00,20.1,14.3,30.36,WNW,292,1.9,2.3,78,0.00,CLR,OVC,0.00,WeatherDisplay:10.37,2013-03-18 12:48:00,
2013-03-18 08:53:00,20.7,14.3,30.36,WNW,292,1.4,2.3,76,0.00,CLR,OVC,0.00,WeatherDisplay:10.37,2013-03-18 12:53:00,
2013-03-18 08:58:00,21.2,13.9,30.36,WNW,292,2.5,2.5,73,0.00,CLR,OVC,0.00,WeatherDisplay:10.37,2013-03-18 12:58:00,
2013-03-18 09:03:00,21.6,13.6,30.36,NE,45,2.5,2.7,71,0.00,CLR,OVC,0.00,WeatherDisplay:10.37,2013-03-18 13:03:00,
2013-03-18 09:08:00,22.1,13.5,30.36,NE,45,2.5,3.2,69,0.00,CLR,OVC,0.00,WeatherDisplay:10.37,2013-03-18 13:08:00,
2013-03-18 09:13:00,22.1,13.1,30.35,NE,45,2.4,3.5,68,0.00,CLR,OVC,0.00,WeatherDisplay:10.37,2013-03-18 13:13:00,
2013-03-18 09:18:00,22.8,14.1,30.35,East,90,3.8,4.6,69,0.00,CLR,OVC,0.00,WeatherDisplay:10.37,2013-03-18 13:18:00,
2013-03-18 09:23:00,23.4,14.4,30.33,East,90,3.0,4.6,68,0.00,CLR,OVC,0.00,WeatherDisplay:10.37,2013-03-18 13:23:00,
2013-03-18 09:28:00,24.1,14.4,30.33,East,90,4.4,5.8,66,0.00,CLR,OVC,0.00,WeatherDisplay:10.37,2013-03-18 13:28:00,
2013-03-18 09:34:00,23.9,13.8,30.33,East,90,3.1,3.7,65,0.00,CLR,OVC,0.00,WeatherDisplay:10.37,2013-03-18 13:34:00,
2013-03-18 09:39:00,24.6,13.8,30.33,East,90,3.4,3.7,63,0.00,CLR,OVC,0.00,WeatherDisplay:10.37,2013-03-18 13:39:00,
2013-03-18 09:44:00,25.3,13.7,30.33,East,90,3.8,4.6,61,0.00,CLR,OVC,0.00,WeatherDisplay:10.37,2013-03-18 13:44:00,
2013-03-18 09:49:00,25.5,12.8,30.32,ESE,112,6.0,8.1,58,0.00,CLR,OVC,0.00,WeatherDisplay:10.37,2013-03-18 13:49:00,
2013-03-18 09:54:00,25.9,13.1,30.32,East,90,3.7,4.6,58,0.00,CLR,OVC,0.00,WeatherDisplay:10.37,2013-03-18 13:54:00,
2013-03-18 09:59:00,26.4,12.4,30.32,East,90,4.7,4.7,55,0.00,CLR,OVC,0.00,WeatherDisplay:10.37,2013-03-18 13:59:00,
2013-03-18 10:04:00,26.2,12.6,30.31,East,90,4.4,4.7,56,0.00,CLR,OVC,0.00,WeatherDisplay:10.37,2013-03-18 14:04:00,
2013-03-18 10:09:00,26.8,13.6,30.31,East,90,4.4,4.6,57,0.00,CLR,OVC,0.00,WeatherDisplay:10.37,2013-03-18 14:09:00,
2013-03-18 10:14:00,26.8,13.6,30.30,East,90,4.2,4.6,57,0.00,CLR,OVC,0.00,WeatherDisplay:10.37,2013-03-18 14:14:00,
2013-03-18 10:19:00,27.5,13.0,30.30,East,90,4.6,5.8,54,0.00,CLR,OVC,0.00,WeatherDisplay:10.37,2013-03-18 14:19:00,
2013-03-18 10:24:00,27.9,13.8,30.30,ESE,112,4.5,6.9,55,0.00,CLR,OVC,0.00,WeatherDisplay:10.37,2013-03-18 14:24:00,
2013-03-18 10:29:00,27.9,13.0,30.30,ESE,112,3.5,4.6,53,0.00,CLR,OVC,0.00,WeatherDisplay:10.37,2013-03-18 14:29:00,
2013-03-18 10:34:00,28.8,13.8,30.30,ESE,112,3.5,4.6,53,0.00,CLR,OVC,0.00,WeatherDisplay:10.37,2013-03-18 14:34:00,
2013-03-18 10:39:00,28.9,13.5,30.30,ESE,112,4.2,4.6,52,0.00,CLR,OVC,0.00,WeatherDisplay:10.37,2013-03-18 14:39:00,
2013-03-18 10:44:00,30.0,14.9,30.30,ESE,112,4.8,6.3,53,0.00,CLR,OVC,0.00,WeatherDisplay:10.37,2013-03-18 14:44:00,
2013-03-18 10:49:00,29.5,13.6,30.29,East,90,5.6,6.8,51,0.00,CLR,OVC,0.00,WeatherDisplay:10.37,2013-03-18 14:49:00,
2013-03-18 10:54:00,29.8,14.3,30.29,East,90,4.7,5.8,52,0.00,CLR,OVC,0.00,WeatherDisplay:10.37,2013-03-18 14:54:00,
2013-03-18 10:59:00,30.2,13.3,30.29,East,90,4.5,6.3,49,0.00,CLR,OVC,0.00,WeatherDisplay:10.37,2013-03-18 14:59:00,
2013-03-18 11:04:00,30.4,14.4,30.29,East,90,4.2,4.7,51,0.00,CLR,OVC,0.00,WeatherDisplay:10.37,2013-03-18 15:04:00,
2013-03-18 11:09:00,30.9,14.9,30.29,East,90,4.5,5.8,51,0.00,CLR,OVC,0.00,WeatherDisplay:10.37,2013-03-18 15:09:00,
2013-03-18 11:14:00,30.6,15.0,30.29,ESE,112,4.6,5.8,52,0.00,CLR,OVC,0.00,WeatherDisplay:10.37,2013-03-18 15:14:00,
2013-03-18 11:19:00,30.9,14.0,30.29,ESE,112,4.0,4.6,49,0.00,CLR,OVC,0.00,WeatherDisplay:10.37,2013-03-18 15:19:00,
2013-03-18 11:24:00,31.1,14.6,30.29,ESE,112,4.7,4.7,50,0.00,CLR,OVC,0.00,WeatherDisplay:10.37,2013-03-18 15:24:00,
2013-03-18 11:29:00,31.5,14.0,30.29,East,90,5.1,5.8,48,0.00,CLR,OVC,0.00,WeatherDisplay:10.37,2013-03-18 15:29:00,
2013-03-18 11:34:00,31.8,14.3,30.29,East,90,3.4,4.6,48,0.00,CLR,OVC,0.00,WeatherDisplay:10.37,2013-03-18 15:34:00,
2013-03-18 11:39:00,32.2,14.2,30.28,ESE,112,4.4,6.9,47,0.00,CLR,OVC,0.00,WeatherDisplay:10.37,2013-03-18 15:39:00,
2013-03-18 11:44:00,32.5,14.5,30.28,ESE,112,5.4,5.8,47,0.00,CLR,OVC,0.00,WeatherDisplay:10.37,2013-03-18 15:44:00,
2013-03-18 11:49:00,32.7,14.2,30.28,ESE,112,6.0,6.9,46,0.00,CLR,OVC,0.00,WeatherDisplay:10.37,2013-03-18 15:49:00,
2013-03-18 11:54:00,32.9,14.8,30.28,ESE,112,4.1,4.7,47,0.00,CLR,OVC,0.00,WeatherDisplay:10.37,2013-03-18 15:54:00,
2013-03-18 11:59:00,32.7,14.2,30.27,East,90,4.5,4.6,46,0.00,CLR,OVC,0.00,WeatherDisplay:10.37,2013-03-18 15:59:00,
2013-03-18 12:04:00,32.9,14.8,30.27,East,90,4.4,5.8,47,0.00,CLR,OVC,0.00,WeatherDisplay:10.37,2013-03-18 16:04:00,
2013-03-18 12:09:00,33.4,15.3,30.27,ESE,112,5.1,5.8,47,0.00,CLR,OVC,0.00,WeatherDisplay:10.37,2013-03-18 16:09:00,
2013-03-18 12:14:00,33.4,14.8,30.26,ESE,112,3.6,4.6,46,0.00,CLR,OVC,0.00,WeatherDisplay:10.37,2013-03-18 16:14:00,
2013-03-18 12:19:00,33.4,14.3,30.26,ESE,112,4.9,5.8,45,0.00,CLR,OVC,0.00,WeatherDisplay:10.37,2013-03-18 16:19:00,
2013-03-18 12:24:00,33.8,14.7,30.25,ESE,112,5.0,5.8,45,0.00,CLR,OVC,0.00,WeatherDisplay:10.37,2013-03-18 16:24:00,
2013-03-18 12:29:00,33.8,15.2,30.25,ESE,112,4.6,4.7,46,0.00,CLR,OVC,0.00,WeatherDisplay:10.37,2013-03-18 16:29:00,
2013-03-18 16:23:00,36.5,16.1,30.36,ESE,112,3.2,3.7,43,0.00,CLR,BKN,0.00,WeatherDisplay:10.37,2013-03-18 20:23:00,
2013-03-18 16:28:00,36.9,13.0,30.11,East,90,3.6,4.6,37,0.00,CLR,BKN,0.00,WeatherDisplay:10.37,2013-03-18 20:28:00,
2013-03-18 16:33:00,37.0,11.2,30.11,SSE,158,3.4,4.2,34,0.00,CLR,BKN,0.00,WeatherDisplay:10.37,2013-03-18 20:33:00,
2013-03-18 16:38:00,36.9,14.8,30.11,SSE,158,3.5,3.7,40,0.00,CLR,BKN,0.00,WeatherDisplay:10.37,2013-03-18 20:38:00,
2013-03-18 16:43:00,36.5,14.4,30.11,SE,135,3.0,4.6,40,0.00,CLR,BKN,0.00,WeatherDisplay:10.37,2013-03-18 20:43:00,
2013-03-18 16:48:00,36.5,15.6,30.11,SE,135,2.1,2.3,42,0.00,CLR,BKN,0.00,WeatherDisplay:10.37,2013-03-18 20:48:00,
2013-03-18 16:53:00,36.3,17.0,30.10,SE,135,2.7,3.5,45,0.00,CLR,BKN,0.00,WeatherDisplay:10.37,2013-03-18 20:53:00,
2013-03-18 16:58:00,35.8,17.0,30.10,SE,135,2.1,3.5,46,0.00,CLR,BKN,0.00,WeatherDisplay:10.37,2013-03-18 20:58:00,
2013-03-18 17:03:00,35.6,17.8,30.10,SE,135,2.5,2.7,48,0.00,CLR,BKN,0.00,WeatherDisplay:10.37,2013-03-18 21:03:00,
2013-03-18 17:08:00,35.4,18.1,30.10,SE,135,2.5,3.5,49,0.00,CLR,BKN,0.00,WeatherDisplay:10.37,2013-03-18 21:08:00,
2013-03-18 17:13:00,35.2,19.8,30.11,SE,135,2.8,3.5,53,0.00,CLR,BKN,0.00,WeatherDisplay:10.37,2013-03-18 21:13:00,
2013-03-18 17:18:00,34.7,20.6,30.11,SE,135,2.7,3.5,56,0.00,CLR,BKN,0.00,WeatherDisplay:10.37,2013-03-18 21:18:00,
2013-03-18 17:23:00,34.2,21.7,30.11,SE,135,2.8,3.5,60,0.00,CLR,BKN,0.00,WeatherDisplay:10.37,2013-03-18 21:23:00,
2013-03-18 17:28:00,33.6,23.4,30.11,SE,135,1.9,2.7,66,0.00,CLR,BKN,0.00,WeatherDisplay:10.37,2013-03-18 21:28:00,
2013-03-18 17:33:00,32.4,25.7,30.11,SE,135,3.5,4.6,76,0.00,CLR,BKN,0.00,WeatherDisplay:10.37,2013-03-18 21:33:00,
2013-03-18 17:38:00,32.0,27.1,30.11,SE,135,2.6,4.6,82,0.00,CLR,BKN,0.00,WeatherDisplay:10.37,2013-03-18 21:38:00,
2013-03-18 17:43:00,31.5,27.2,30.11,SE,135,2.6,3.5,84,0.00,CLR,BKN,0.00,WeatherDisplay:10.37,2013-03-18 21:43:00,
2013-03-18 17:48:00,31.3,27.3,30.09,SE,135,3.2,3.7,85,0.00,CLR,BKN,0.00,WeatherDisplay:10.37,2013-03-18 21:48:00,
2013-03-18 17:53:00,30.7,27.0,30.09,SE,135,3.3,4.6,86,0.00,CLR,BKN,0.00,WeatherDisplay:10.37,2013-03-18 21:53:00,
2013-03-18 17:58:00,30.7,27.0,30.09,SE,135,2.7,3.5,86,0.00,CLR,BKN,0.00,WeatherDisplay:10.37,2013-03-18 21:58:00,
2013-03-18 18:03:00,30.7,27.3,30.09,SE,135,2.9,3.5,87,0.00,CLR,BKN,0.00,WeatherDisplay:10.37,2013-03-18 22:03:00,
2013-03-18 18:08:00,30.4,27.3,30.09,SE,135,3.2,3.5,88,0.00,CLR,BKN,0.00,WeatherDisplay:10.37,2013-03-18 22:08:00,
2013-03-18 18:13:00,29.8,27.2,30.08,SE,135,4.5,5.8,90,0.00,CLR,BKN,0.00,WeatherDisplay:10.37,2013-03-18 22:13:00,
2013-03-18 18:18:00,29.7,27.4,30.08,SE,135,3.3,4.2,91,0.00,CLR,BKN,0.00,WeatherDisplay:10.37,2013-03-18 22:18:00,
2013-03-18 18:23:00,29.5,27.5,30.08,SE,135,3.8,4.6,92,0.00,CLR,BKN,0.00,WeatherDisplay:10.37,2013-03-18 22:23:00,
2013-03-18 18:28:00,29.3,27.3,30.07,ESE,112,6.2,8.1,92,0.00,CLR,BKN,0.00,WeatherDisplay:10.37,2013-03-18 22:28:00,
2013-03-18 18:33:00,29.3,27.5,30.07,ESE,112,4.9,5.8,93,0.00,CLR,BKN,0.00,WeatherDisplay:10.37,2013-03-18 22:33:00,
2013-03-18 18:38:00,29.3,27.5,30.05,ESE,112,4.7,5.8,93,0.00,CLR,BKN,0.00,WeatherDisplay:10.37,2013-03-18 22:38:00,
2013-03-18 18:43:00,29.3,27.8,30.05,ESE,112,4.8,5.8,94,0.00,CLR,BKN,0.00,WeatherDisplay:10.37,2013-03-18 22:43:00,
2013-03-18 18:48:00,29.3,27.8,30.04,ESE,112,5.2,6.9,94,0.00,CLR,BKN,0.00,WeatherDisplay:10.37,2013-03-18 22:48:00,
2013-03-18 18:53:00,29.3,27.8,30.04,ESE,112,5.1,5.8,94,0.00,CLR,BKN,0.00,WeatherDisplay:10.37,2013-03-18 22:53:00,
2013-03-18 18:58:00,29.3,27.8,30.04,ESE,112,3.7,5.3,94,0.00,CLR,BKN,0.00,WeatherDisplay:10.37,2013-03-18 22:58:00,
2013-03-18 19:03:00,29.3,27.8,30.04,ESE,112,4.0,4.6,94,0.00,CLR,BKN,0.00,WeatherDisplay:10.37,2013-03-18 23:03:00,
2013-03-18 19:08:00,29.3,28.0,30.04,ESE,112,3.2,3.7,95,0.00,CLR,BKN,0.00,WeatherDisplay:10.37,2013-03-18 23:08:00,
2013-03-18 19:13:00,29.3,28.0,30.04,ESE,112,3.8,4.7,95,0.00,CLR,BKN,0.00,WeatherDisplay:10.37,2013-03-18 23:13:00,
2013-03-18 19:18:00,29.3,28.0,30.04,ESE,112,4.2,4.6,95,0.00,CLR,BKN,0.00,WeatherDisplay:10.37,2013-03-18 23:18:00,
2013-03-18 19:23:00,29.3,28.0,30.04,ESE,112,3.0,4.6,95,0.00,CLR,BKN,0.00,WeatherDisplay:10.37,2013-03-18 23:23:00,
2013-03-18 19:28:00,29.3,28.0,30.04,ESE,112,3.5,4.2,95,0.00,CLR,BKN,0.00,WeatherDisplay:10.37,2013-03-18 23:28:00,
2013-03-18 19:33:00,29.5,28.2,30.04,ESE,112,3.3,4.6,95,0.00,CLR,BKN,0.00,WeatherDisplay:10.37,2013-03-18 23:33:00,
2013-03-18 19:38:00,29.5,28.2,30.03,ESE,112,3.8,4.6,95,0.00,CLR,BKN,0.00,WeatherDisplay:10.37,2013-03-18 23:38:00,
2013-03-18 19:43:00,29.5,28.2,30.03,ESE,112,3.7,5.8,95,0.00,CLR,BKN,0.00,WeatherDisplay:10.37,2013-03-18 23:43:00,
2013-03-18 19:48:00,29.5,28.2,30.02,ESE,112,3.7,4.6,95,0.00,CLR,BKN,0.00,WeatherDisplay:10.37,2013-03-18 23:48:00,
2013-03-18 19:53:00,29.7,28.4,30.02,ESE,112,4.0,4.6,95,0.00,CLR,BKN,0.00,WeatherDisplay:10.37,2013-03-18 23:53:00,
2013-03-18 19:58:00,29.7,28.4,30.02,ESE,112,4.5,5.8,95,0.00,CLR,BKN,0.00,WeatherDisplay:10.37,2013-03-18 23:58:00,
2013-03-18 20:03:00,29.7,28.4,30.02,ESE,112,4.4,5.8,95,0.00,CLR,BKN,0.00,WeatherDisplay:10.37,2013-03-19 00:03:00,
2013-03-18 20:08:00,29.8,28.8,30.02,ESE,112,4.1,4.6,96,0.00,CLR,BKN,0.00,WeatherDisplay:10.37,2013-03-19 00:08:00,
2013-03-18 20:13:00,29.8,28.8,30.01,ESE,112,3.5,5.8,96,0.00,CLR,BKN,0.00,WeatherDisplay:10.37,2013-03-19 00:13:00,
2013-03-18 20:18:00,29.8,28.8,30.01,ESE,112,2.5,3.5,96,0.00,CLR,BKN,0.00,WeatherDisplay:10.37,2013-03-19 00:18:00,
2013-03-18 20:23:00,29.8,28.8,30.01,ESE,112,4.3,4.6,96,0.00,CLR,BKN,0.00,WeatherDisplay:10.37,2013-03-19 00:23:00,
2013-03-18 20:28:00,29.8,28.8,30.01,ESE,112,3.0,3.5,96,0.00,CLR,BKN,0.00,WeatherDisplay:10.37,2013-03-19 00:28:00,
2013-03-18 20:33:00,29.8,28.8,30.01,ESE,112,4.5,5.8,96,0.00,CLR,BKN,0.00,WeatherDisplay:10.37,2013-03-19 00:33:00,
2013-03-18 20:38:00,29.8,28.8,30.01,ESE,112,4.7,5.8,96,0.00,CLR,BKN,0.00,WeatherDisplay:10.37,2013-03-19 00:38:00,
2013-03-18 20:43:00,29.8,28.8,30.01,ESE,112,4.5,5.8,96,0.00,CLR,BKN,0.00,WeatherDisplay:10.37,2013-03-19 00:43:00,
2013-03-18 20:48:00,29.8,28.8,30.00,ESE,112,3.4,4.6,96,0.00,CLR,BKN,0.00,WeatherDisplay:10.37,2013-03-19 00:48:00,
2013-03-18 20:53:00,29.8,28.8,30.00,ESE,112,4.6,5.8,96,0.00,CLR,BKN,0.00,WeatherDisplay:10.37,2013-03-19 00:53:00,
2013-03-18 20:58:00,29.8,28.8,29.99,ESE,112,4.6,5.8,96,0.00,CLR,BKN,0.00,WeatherDisplay:10.37,2013-03-19 00:58:00,
2013-03-18 21:03:00,29.8,28.8,29.99,ESE,112,5.4,5.4,96,0.00,CLR,BKN,0.00,WeatherDisplay:10.37,2013-03-19 01:03:00,
2013-03-18 21:09:00,29.8,28.8,29.99,ESE,112,3.7,5.8,96,0.00,CLR,BKN,0.00,WeatherDisplay:10.37,2013-03-19 01:09:00,
2013-03-18 21:13:00,29.7,28.7,29.99,ESE,112,3.9,5.8,96,0.00,CLR,BKN,0.00,WeatherDisplay:10.37,2013-03-19 01:13:00,
2013-03-18 21:19:00,29.5,28.5,29.99,ESE,112,4.6,5.8,96,0.00,CLR,BKN,0.00,WeatherDisplay:10.37,2013-03-19 01:19:00,
2013-03-18 21:24:00,29.5,28.5,29.98,ESE,112,4.2,5.8,96,0.00,CLR,BKN,0.00,WeatherDisplay:10.37,2013-03-19 01:24:00,
2013-03-18 21:29:00,29.3,28.3,29.98,ESE,112,6.0,6.9,96,0.00,CLR,BKN,0.00,WeatherDisplay:10.37,2013-03-19 01:29:00,
2013-03-18 21:34:00,29.3,28.3,29.98,ESE,112,4.4,5.8,96,0.00,CLR,BKN,0.00,WeatherDisplay:10.37,2013-03-19 01:34:00,
2013-03-18 21:39:00,29.3,28.3,29.98,ESE,112,3.7,5.3,96,0.00,CLR,BKN,0.00,WeatherDisplay:10.37,2013-03-19 01:39:00,
2013-03-18 21:44:00,29.3,28.3,29.98,ESE,112,6.0,6.0,96,0.00,CLR,BKN,0.00,WeatherDisplay:10.37,2013-03-19 01:44:00,
2013-03-18 21:49:00,29.3,28.3,29.97,ESE,112,3.3,4.6,96,0.00,CLR,BKN,0.00,WeatherDisplay:10.37,2013-03-19 01:49:00,
2013-03-18 21:54:00,29.3,28.3,29.97,ESE,112,4.2,5.8,96,0.00,CLR,BKN,0.00,WeatherDisplay:10.37,2013-03-19 01:54:00,
2013-03-18 21:59:00,29.1,28.1,29.97,ESE,112,3.8,4.6,96,0.00,CLR,BKN,0.00,WeatherDisplay:10.37,2013-03-19 01:59:00,
2013-03-18 22:04:00,29.1,28.1,29.96,ESE,112,3.4,4.6,96,0.00,CLR,BKN,0.00,WeatherDisplay:10.37,2013-03-19 02:04:00,
2013-03-18 22:09:00,29.1,28.1,29.96,ESE,112,5.2,5.3,96,0.00,CLR,BKN,0.00,WeatherDisplay:10.37,2013-03-19 02:09:00,
2013-03-18 22:14:00,29.1,28.1,29.96,ESE,112,4.9,6.9,96,0.00,CLR,BKN,0.00,WeatherDisplay:10.37,2013-03-19 02:14:00,
2013-03-18 22:19:00,29.1,28.1,29.96,ESE,112,4.2,4.6,96,0.00,CLR,BKN,0.00,WeatherDisplay:10.37,2013-03-19 02:19:00,
2013-03-18 22:24:00,29.1,28.1,29.95,ESE,112,3.3,3.5,96,0.00,CLR,BKN,0.00,WeatherDisplay:10.37,2013-03-19 02:24:00,
2013-03-18 22:29:00,29.1,28.1,29.95,ESE,112,3.7,4.6,96,0.00,CLR,BKN,0.00,WeatherDisplay:10.37,2013-03-19 02:29:00,
2013-03-18 22:34:00,28.9,27.9,29.95,ESE,112,3.7,4.7,96,0.00,CLR,BKN,0.00,WeatherDisplay:10.37,2013-03-19 02:34:00,
2013-03-18 22:39:00,28.9,27.9,29.94,ESE,112,3.8,5.8,96,0.00,CLR,BKN,0.00,WeatherDisplay:10.37,2013-03-19 02:39:00,
2013-03-18 22:44:00,28.9,27.9,29.94,ESE,112,4.6,5.8,96,0.00,CLR,BKN,0.00,WeatherDisplay:10.37,2013-03-19 02:44:00,
2013-03-18 22:49:00,28.9,27.9,29.93,ESE,112,3.9,4.6,96,0.00,CLR,BKN,0.00,WeatherDisplay:10.37,2013-03-19 02:49:00,
2013-03-18 22:54:00,28.9,27.9,29.93,ESE,112,3.9,4.6,96,0.00,CLR,BKN,0.00,WeatherDisplay:10.37,2013-03-19 02:54:00,
2013-03-18 22:59:00,28.9,27.9,29.91,ESE,112,3.8,5.8,96,0.00,CLR,BKN,0.00,WeatherDisplay:10.37,2013-03-19 02:59:00,
2013-03-18 23:04:00,28.9,27.9,29.91,ESE,112,3.5,4.6,96,0.00,CLR,BKN,0.00,WeatherDisplay:10.37,2013-03-19 03:04:00,
2013-03-18 23:09:00,28.9,27.9,29.91,ESE,112,2.9,3.5,96,0.00,CLR,BKN,0.00,WeatherDisplay:10.37,2013-03-19 03:09:00,
2013-03-18 23:14:00,28.9,27.9,29.91,ESE,112,3.6,3.6,96,0.00,CLR,BKN,0.00,WeatherDisplay:10.37,2013-03-19 03:14:00,
2013-03-18 23:19:00,28.9,27.9,29.91,ESE,112,4.4,5.3,96,0.00,CLR,BKN,0.00,WeatherDisplay:10.37,2013-03-19 03:19:00,
2013-03-18 23:24:00,28.9,27.9,29.90,ESE,112,4.3,5.8,96,0.00,CLR,BKN,0.00,WeatherDisplay:10.37,2013-03-19 03:24:00,
2013-03-18 23:29:00,28.9,27.9,29.90,ESE,112,4.7,5.8,96,0.00,CLR,BKN,0.00,WeatherDisplay:10.37,2013-03-19 03:29:00,
2013-03-18 23:34:00,28.8,27.8,29.90,ESE,112,4.7,5.8,96,0.00,CLR,BKN,0.00,WeatherDisplay:10.37,2013-03-19 03:34:00,
2013-03-18 23:39:00,28.8,27.8,29.89,ESE,112,4.1,4.6,96,0.00,CLR,BKN,0.00,WeatherDisplay:10.37,2013-03-19 03:39:00,
2013-03-18 23:44:00,28.8,27.8,29.89,ESE,112,4.4,5.8,96,0.00,CLR,BKN,0.00,WeatherDisplay:10.37,2013-03-19 03:44:00,
2013-03-18 23:49:00,28.8,27.8,29.89,ESE,112,5.0,5.8,96,0.00,CLR,BKN,0.00,WeatherDisplay:10.37,2013-03-19 03:49:00,
2013-03-18 23:54:00,28.8,27.8,29.89,ESE,112,4.2,4.6,96,0.00,CLR,BKN,0.00,WeatherDisplay:10.37,2013-03-19 03:54:00,
2013-03-18 23:59:00,28.8,27.8,29.89,ESE,112,4.2,5.8,96,0.00,CLR,BKN,0.00,WeatherDisplay:10.37,2013-03-19 03:59:00,